Bulawayo, Zimbabwe
Current Conditions -  °F | °C
As of 5:00 AM on Tuesday 23 Dec 2014 (Local Time) from FBFT Reporting Station
Clear Clear  
Wind Chill: 68°   Ceiling: Unl
Heat Index: 68°   Visibility: 6mi
Dew Point: 64°   Wind: 3mph
Humidity: 88%   Direction: 110°ESE
Pressure: 30.03"   Gusts: NA
Location:  20.17°S, 28.58°E
Report Text: FBFT 230300Z 11003KT CAVOK 20/18 Q1017
Loading
Personal Weather Stations






























Interactive Weather Map New forecast layout! Learn more

10-Day Weather Forecast

Advertisements
Track Severe Weather on mobile